Time;durP1;ratioP1;P1;durP2;ratioP2;P2;SDS_P1;SDS_P2;PMS_P1;PMS_P2;Temp;Humidity;BMP_temperature;BMP_pressure;BME280_temperature;BME280_humidity;BME280_pressure;Samples;Min_cycle;Max_cycle;Signal;HPM_P1;HPM_P2
2023/03/26 00:03:04;;;;;;;2.50;2.10;;;10.60;99.90;;;;;;10434002;28;20716;-78
2023/03/26 00:08:09;;;;;;;2.70;2.07;;;10.60;99.90;;;;;;10444040;28;20194;-78
2023/03/26 00:13:11;;;;;;;4.60;2.47;;;10.50;99.90;;;;;;10432819;28;20209;-80
2023/03/26 00:18:13;;;;;;;3.20;1.80;;;10.40;99.90;;;;;;10442989;28;20689;-79
2023/03/26 00:23:16;;;;;;;3.73;2.10;;;10.40;99.90;;;;;;10432062;28;20218;-78
2023/03/26 00:28:20;;;;;;;3.60;2.40;;;10.30;99.90;;;;;;10444652;28;20599;-80
2023/03/26 00:33:22;;;;;;;3.30;2.07;;;10.40;99.90;;;;;;10457328;28;20780;-78
2023/03/26 00:38:27;;;;;;;3.00;2.20;;;10.30;99.90;;;;;;10432657;28;20219;-79
2023/03/26 00:43:31;;;;;;;5.53;2.40;;;10.30;99.90;;;;;;10415200;28;20223;-80
2023/03/26 00:48:33;;;;;;;3.20;2.13;;;10.30;99.90;;;;;;10440518;28;20194;-79
2023/03/26 00:53:37;;;;;;;4.73;2.17;;;10.30;99.90;;;;;;10432898;28;20233;-79
2023/03/26 00:58:41;;;;;;;2.90;2.40;;;10.40;99.90;;;;;;10437242;28;20216;-79
2023/03/26 01:03:45;;;;;;;4.87;2.30;;;10.40;99.90;;;;;;10452134;28;20227;-79
2023/03/26 01:08:51;;;;;;;2.80;2.10;;;10.50;99.90;;;;;;10435040;28;20194;-80
2023/03/26 01:13:56;;;;;;;2.70;2.00;;;10.50;99.90;;;;;;10439610;28;20253;-77
2023/03/26 01:18:59;;;;;;;3.27;2.00;;;10.50;99.90;;;;;;10432278;28;20218;-78
2023/03/26 01:24:04;;;;;;;3.80;2.63;;;10.40;99.90;;;;;;10401544;28;20644;-80
2023/03/26 01:29:12;;;;;;;6.17;2.73;;;10.40;99.90;;;;;;10439859;28;20611;-80
2023/03/26 01:34:23;;;;;;;5.30;2.70;;;10.40;99.90;;;;;;10447869;28;20573;-79
2023/03/26 01:39:32;;;;;;;2.70;2.47;;;10.30;99.90;;;;;;10435352;28;20256;-78
2023/03/26 01:44:41;;;;;;;5.10;2.10;;;10.30;99.90;;;;;;10418145;28;20249;-80
2023/03/26 01:49:43;;;;;;;6.00;2.73;;;10.30;99.90;;;;;;10442744;28;20289;-78
2023/03/26 01:54:47;;;;;;;4.60;2.20;;;10.30;99.90;;;;;;10449471;28;20238;-78
2023/03/26 02:00:10;;;;;;;4.80;2.70;;;10.30;99.90;;;;;;10430656;28;20214;-79
2023/03/26 02:05:20;;;;;;;5.20;3.03;;;10.30;99.90;;;;;;10443880;28;20219;-79
2023/03/26 02:10:27;;;;;;;4.73;2.77;;;10.30;99.90;;;;;;10426922;28;20209;-79
2023/03/26 02:15:29;;;;;;;6.67;3.40;;;10.30;99.90;;;;;;10442625;28;20245;-79
2023/03/26 02:20:31;;;;;;;4.47;2.90;;;10.30;99.90;;;;;;10426796;28;20229;-78
2023/03/26 02:25:38;;;;;;;3.43;2.40;;;10.30;99.90;;;;;;10403482;28;20221;-78
2023/03/26 02:30:42;;;;;;;4.23;2.70;;;10.40;99.90;;;;;;10438103;28;20190;-80
2023/03/26 02:35:44;;;;;;;3.27;2.60;;;10.40;99.90;;;;;;10440438;28;20230;-80
2023/03/26 02:40:48;;;;;;;3.83;2.80;;;10.40;99.90;;;;;;10425807;28;20732;-78
2023/03/26 02:45:51;;;;;;;4.10;2.77;;;10.30;99.90;;;;;;10419864;28;20237;-79
2023/03/26 02:51:20;;;;;;;5.27;2.43;;;10.30;99.90;;;;;;10446119;28;20200;-79
2023/03/26 02:56:39;;;;;;;5.63;2.83;;;10.20;99.90;;;;;;10421279;28;20225;-78
2023/03/26 03:01:59;;;;;;;4.00;2.90;;;10.00;99.90;;;;;;10444847;28;20238;-79
2023/03/26 03:07:01;;;;;;;4.73;3.23;;;10.00;99.90;;;;;;10446359;28;20609;-78
2023/03/26 03:12:06;;;;;;;3.33;2.60;;;10.10;99.90;;;;;;10418902;28;20224;-79
2023/03/26 03:17:08;;;;;;;6.50;2.77;;;10.10;99.90;;;;;;10429248;28;20218;-80
2023/03/26 03:22:10;;;;;;;3.13;2.83;;;10.20;99.90;;;;;;10423493;28;20604;-78
2023/03/26 03:27:14;;;;;;;5.73;2.60;;;10.20;99.90;;;;;;10423384;28;20245;-79
2023/03/26 03:32:22;;;;;;;5.80;2.83;;;10.20;99.90;;;;;;10436132;28;20201;-78
2023/03/26 03:37:25;;;;;;;8.40;2.73;;;10.30;99.90;;;;;;10453441;28;20238;-79
2023/03/26 03:42:31;;;;;;;4.93;2.90;;;10.30;99.90;;;;;;10428682;28;20309;-79
2023/03/26 03:47:37;;;;;;;3.50;2.57;;;10.40;99.90;;;;;;10420071;28;20654;-79
2023/03/26 03:52:39;;;;;;;3.80;2.57;;;10.50;99.90;;;;;;10453423;28;20280;-80
2023/03/26 03:57:43;;;;;;;7.00;3.00;;;10.50;99.90;;;;;;10427187;28;20226;-79
2023/03/26 04:02:53;;;;;;;4.70;2.90;;;10.50;99.90;;;;;;10453850;28;20198;-81
2023/03/26 04:07:55;;;;;;;7.10;2.70;;;10.50;99.90;;;;;;10451858;28;20202;-80
2023/03/26 04:13:05;;;;;;;3.97;2.70;;;10.60;99.90;;;;;;10427875;28;20651;-80
2023/03/26 04:18:29;;;;;;;7.30;2.90;;;10.60;99.90;;;;;;10448942;28;20296;-80
2023/03/26 04:23:35;;;;;;;6.17;2.63;;;10.60;99.90;;;;;;10421442;28;20230;-80
2023/03/26 04:28:55;;;;;;;4.63;3.30;;;10.70;99.90;;;;;;10428942;28;20197;-81
2023/03/26 04:34:22;;;;;;;5.30;3.20;;;10.70;99.90;;;;;;10424410;28;20640;-80
2023/03/26 04:39:45;;;;;;;3.47;2.73;;;10.70;99.90;;;;;;10385608;28;20205;-81
2023/03/26 04:45:14;;;;;;;4.50;2.87;;;10.70;99.90;;;;;;10448888;28;20267;-80
2023/03/26 04:50:19;;;;;;;9.23;2.90;;;10.80;99.90;;;;;;10453627;28;20290;-80
2023/03/26 04:55:25;;;;;;;5.90;2.40;;;10.80;99.90;;;;;;10424940;28;20523;-80
2023/03/26 05:00:38;;;;;;;6.60;3.23;;;10.80;99.90;;;;;;10454372;28;20670;-79
2023/03/26 05:05:40;;;;;;;4.73;3.70;;;10.80;99.90;;;;;;10423125;28;20238;-80
2023/03/26 05:10:43;;;;;;;8.70;3.13;;;10.90;99.20;;;;;;10433536;28;20273;-78
2023/03/26 05:15:51;;;;;;;4.93;2.83;;;11.00;98.60;;;;;;10476645;28;20236;-79
2023/03/26 05:21:05;;;;;;;7.07;2.97;;;10.90;98.80;;;;;;10448785;28;20678;-80
2023/03/26 05:26:09;;;;;;;4.30;3.00;;;10.90;98.50;;;;;;10471083;28;20245;-79
2023/03/26 05:31:14;;;;;;;4.77;2.90;;;10.90;98.50;;;;;;10458705;28;20225;-79
2023/03/26 05:36:21;;;;;;;6.43;3.27;;;10.90;98.90;;;;;;10452429;28;20220;-79
2023/03/26 05:41:31;;;;;;;4.10;3.03;;;10.90;98.30;;;;;;10421475;28;20309;-79
2023/03/26 05:46:35;;;;;;;4.43;2.70;;;11.00;98.20;;;;;;10422611;28;20230;-80
2023/03/26 05:51:37;;;;;;;6.60;3.17;;;11.00;98.20;;;;;;10421803;28;20613;-80
2023/03/26 05:57:04;;;;;;;5.50;2.77;;;11.00;97.80;;;;;;10426075;28;20591;-80
2023/03/26 06:02:28;;;;;;;3.40;2.60;;;10.90;98.00;;;;;;10440377;28;20224;-80
2023/03/26 06:08:02;;;;;;;7.10;3.37;;;10.80;98.50;;;;;;10425666;28;20207;-80
2023/03/26 06:13:14;;;;;;;7.93;3.73;;;10.40;99.60;;;;;;10432641;28;20213;-80
2023/03/26 06:18:19;;;;;;;4.30;3.40;;;10.10;99.00;;;;;;10393098;28;20198;-77
2023/03/26 06:23:45;;;;;;;6.20;3.57;;;9.90;99.90;;;;;;10429110;28;20225;-79
2023/03/26 06:29:08;;;;;;;7.37;3.93;;;9.80;99.90;;;;;;10437779;28;20220;-78
2023/03/26 06:34:22;;;;;;;5.80;3.83;;;9.80;99.90;;;;;;10444103;28;20213;-79
2023/03/26 06:39:26;;;;;;;3.97;3.20;;;9.80;99.90;;;;;;10442982;28;20270;-79
2023/03/26 06:44:50;;;;;;;9.60;2.90;;;9.90;99.90;;;;;;10425125;28;20386;-80
2023/03/26 06:50:12;;;;;;;4.93;2.97;;;9.90;99.90;;;;;;10448779;28;20266;-80
2023/03/26 06:55:33;;;;;;;3.60;3.07;;;10.00;99.90;;;;;;10430079;28;20229;-79
2023/03/26 07:00:56;;;;;;;4.40;3.37;;;10.10;99.70;;;;;;10416820;28;20316;-79
2023/03/26 07:06:18;;;;;;;4.90;4.10;;;10.10;99.90;;;;;;10459695;28;20242;-79
2023/03/26 07:11:40;;;;;;;5.03;3.17;;;9.90;99.90;;;;;;10437287;28;20203;-79
2023/03/26 07:17:01;;;;;;;5.73;3.30;;;9.90;99.90;;;;;;10388237;28;20219;-80
2023/03/26 07:22:18;;;;;;;6.60;3.50;;;9.80;99.90;;;;;;10448435;28;20252;-80
2023/03/26 07:27:52;;;;;;;3.97;2.83;;;9.80;99.90;;;;;;10464619;28;20209;-82
2023/03/26 07:33:09;;;;;;;5.20;3.23;;;9.70;99.90;;;;;;10446921;28;20195;-82
2023/03/26 07:38:34;;;;;;;4.37;3.80;;;9.80;99.90;;;;;;10458831;28;20198;-80
2023/03/26 07:44:28;;;;;;;3.80;3.40;;;10.00;99.90;;;;;;10430839;28;20219;-80
2023/03/26 07:49:51;;;;;;;4.80;4.03;;;9.90;99.90;;;;;;10446011;28;20943;-81
2023/03/26 07:55:02;;;;;;;5.43;5.03;;;9.90;99.90;;;;;;10480806;28;20228;-82
2023/03/26 08:00:29;;;;;;;5.10;4.00;;;9.90;99.90;;;;;;10449766;28;20217;-78
2023/03/26 08:05:43;;;;;;;5.77;5.20;;;9.70;99.90;;;;;;10462687;28;20222;-81
2023/03/26 08:11:20;;;;;;;12.03;7.77;;;9.70;99.90;;;;;;10414089;28;20199;-83
2023/03/26 08:16:34;;;;;;;9.33;8.00;;;9.70;99.90;;;;;;10435499;28;20229;-81
2023/03/26 08:21:40;;;;;;;8.60;7.43;;;9.70;99.90;;;;;;10435385;28;20232;-82
2023/03/26 08:26:51;;;;;;;8.47;7.67;;;9.60;99.90;;;;;;10425550;28;20217;-83
2023/03/26 08:31:56;;;;;;;9.13;8.30;;;9.50;99.90;;;;;;10436907;28;20216;-83
2023/03/26 08:36:58;;;;;;;9.20;8.40;;;9.40;99.90;;;;;;10448434;28;20283;-81
2023/03/26 08:42:48;;;;;;;8.60;7.90;;;9.40;99.90;;;;;;10442330;28;20222;-80
2023/03/26 08:48:27;;;;;;;14.57;10.30;;;9.40;99.90;;;;;;10468285;28;20224;-81
2023/03/26 08:54:06;;;;;;;10.10;9.30;;;9.40;99.90;;;;;;10453465;28;20238;-81
2023/03/26 08:59:56;;;;;;;10.20;9.27;;;9.50;99.90;;;;;;10437737;28;20216;-82
2023/03/26 09:05:31;;;;;;;9.27;8.50;;;9.80;99.90;;;;;;10387054;28;20216;-82
2023/03/26 09:11:07;;;;;;;9.87;8.97;;;9.90;99.90;;;;;;10419886;28;20283;-81
2023/03/26 09:16:41;;;;;;;8.30;7.57;;;10.00;99.90;;;;;;10401337;28;20657;-82
2023/03/26 09:22:19;;;;;;;7.00;6.40;;;10.40;99.90;;;;;;10404327;28;20226;-82
2023/03/26 09:27:37;;;;;;;5.77;5.37;;;10.70;99.90;;;;;;10402556;28;20307;-82
2023/03/26 09:33:04;;;;;;;5.70;5.20;;;10.90;99.90;;;;;;10415583;28;20201;-82
2023/03/26 09:38:17;;;;;;;7.07;5.10;;;11.20;99.90;;;;;;10407688;28;20203;-82
2023/03/26 09:43:39;;;;;;;5.50;5.10;;;11.50;99.90;;;;;;10418606;28;20571;-81
2023/03/26 09:49:09;;;;;;;5.13;4.73;;;11.90;99.90;;;;;;10399678;28;20207;-82
2023/03/26 09:54:53;;;;;;;6.07;4.60;;;12.50;99.90;;;;;;10420843;28;20235;-82
2023/03/26 10:00:19;;;;;;;4.87;4.47;;;13.00;99.90;;;;;;10376555;28;20222;-84
2023/03/26 10:05:37;;;;;;;4.60;4.40;;;13.60;99.90;;;;;;10439321;28;20313;-83
2023/03/26 10:10:46;;;;;;;4.40;4.10;;;13.90;99.90;;;;;;10404846;28;20646;-84
2023/03/26 10:16:03;;;;;;;4.07;3.80;;;14.00;99.90;;;;;;10427718;28;20220;-82
2023/03/26 10:21:12;;;;;;;3.87;3.67;;;14.00;99.90;;;;;;10434430;28;20248;-84
2023/03/26 10:26:32;;;;;;;3.83;3.63;;;14.00;99.90;;;;;;10429091;28;20222;-84
2023/03/26 10:31:43;;;;;;;4.00;3.70;;;13.90;99.90;;;;;;10392277;28;20190;-84
2023/03/26 10:36:55;;;;;;;4.33;4.03;;;13.90;99.90;;;;;;10409992;28;20221;-84
2023/03/26 10:42:07;;;;;;;4.17;3.97;;;13.80;99.90;;;;;;10409184;28;20736;-82
2023/03/26 10:47:48;;;;;;;4.27;4.07;;;13.50;99.90;;;;;;10400360;28;20219;-84
2023/03/26 10:52:57;;;;;;;3.90;3.60;;;13.50;99.90;;;;;;10390976;28;20199;-84
2023/03/26 10:58:04;;;;;;;3.57;3.40;;;13.50;99.90;;;;;;10412883;28;20214;-83
2023/03/26 11:03:40;;;;;;;2.30;2.20;;;13.60;99.90;;;;;;10416545;28;20214;-84
2023/03/26 11:08:50;;;;;;;2.90;2.70;;;13.80;98.80;;;;;;10402681;28;20543;-81
2023/03/26 11:14:00;;;;;;;2.00;1.90;;;13.70;99.40;;;;;;10412905;28;20227;-81
2023/03/26 11:19:08;;;;;;;2.87;2.53;;;13.80;98.30;;;;;;10427530;28;20198;-83
2023/03/26 11:24:43;;;;;;;2.10;1.90;;;13.70;95.80;;;;;;10423019;28;20233;-84
2023/03/26 11:29:52;;;;;;;1.70;1.60;;;13.60;98.00;;;;;;10444951;28;20710;-80
2023/03/26 11:35:01;;;;;;;2.17;1.87;;;13.40;97.10;;;;;;10429779;28;20645;-81
2023/03/26 11:40:11;;;;;;;2.17;2.00;;;13.20;98.00;;;;;;10443566;28;20212;-81
2023/03/26 11:45:17;;;;;;;2.87;1.90;;;13.10;98.70;;;;;;10440017;28;20226;-81
2023/03/26 11:50:25;;;;;;;1.90;1.40;;;13.20;97.80;;;;;;10448631;28;20198;-82
2023/03/26 11:55:31;;;;;;;2.00;1.37;;;13.30;94.70;;;;;;10414702;28;20236;-81
2023/03/26 12:00:34;;;;;;;1.60;1.50;;;13.40;94.40;;;;;;10415293;28;20304;-81
2023/03/26 12:05:47;;;;;;;1.63;1.53;;;13.40;96.00;;;;;;10433397;28;20217;-81
2023/03/26 12:11:00;;;;;;;3.57;1.80;;;13.50;94.30;;;;;;10435539;28;20202;-81
2023/03/26 12:16:12;;;;;;;1.37;1.30;;;13.70;93.30;;;;;;10448025;28;20625;-81
2023/03/26 12:21:16;;;;;;;1.73;1.63;;;14.00;92.60;;;;;;10435264;28;20260;-81
2023/03/26 12:26:21;;;;;;;1.90;1.80;;;14.30;92.50;;;;;;10447735;28;20222;-83
2023/03/26 12:31:25;;;;;;;2.80;1.60;;;14.60;91.30;;;;;;10443711;28;20195;-82
2023/03/26 12:36:32;;;;;;;1.80;1.70;;;14.80;90.50;;;;;;10448967;28;20223;-83
2023/03/26 12:41:40;;;;;;;1.67;1.57;;;14.90;88.00;;;;;;10434395;28;20242;-80
2023/03/26 12:46:46;;;;;;;3.60;2.83;;;14.90;86.40;;;;;;10450685;28;20221;-80
2023/03/26 12:51:51;;;;;;;2.50;1.60;;;14.80;90.10;;;;;;10425580;28;20198;-79
2023/03/26 12:57:15;;;;;;;3.80;2.47;;;14.80;93.30;;;;;;10453798;28;20226;-80
2023/03/26 13:03:12;;;;;;;1.80;1.70;;;14.80;94.90;;;;;;10423234;28;20222;-81
2023/03/26 13:08:34;;;;;;;6.23;2.30;;;14.60;95.40;;;;;;10322199;28;20197;-81
2023/03/26 13:14:05;;;;;;;2.00;1.90;;;14.60;92.90;;;;;;10390808;28;20695;-80
2023/03/26 13:19:11;;;;;;;2.00;1.77;;;14.60;94.40;;;;;;10449838;28;20195;-81
2023/03/26 13:24:24;;;;;;;2.20;2.00;;;14.70;93.50;;;;;;10431577;28;20222;-82
2023/03/26 13:29:36;;;;;;;3.60;2.17;;;14.80;90.50;;;;;;10404494;28;20312;-81
2023/03/26 13:34:59;;;;;;;3.37;2.13;;;14.90;91.00;;;;;;10480147;28;20283;-83
2023/03/26 13:40:15;;;;;;;2.50;2.07;;;15.00;90.50;;;;;;10486246;28;20199;-80
2023/03/26 13:45:33;;;;;;;2.60;2.37;;;15.10;89.60;;;;;;10437928;28;20217;-82
2023/03/26 13:50:40;;;;;;;3.17;2.03;;;15.10;89.40;;;;;;10449037;28;20193;-84
2023/03/26 13:55:46;;;;;;;1.60;1.50;;;14.90;87.70;;;;;;10461038;28;20244;-84
2023/03/26 14:00:58;;;;;;;2.33;2.13;;;14.90;89.90;;;;;;10447207;28;20214;-84
2023/03/26 14:06:09;;;;;;;1.70;1.60;;;14.80;90.90;;;;;;10431789;28;20215;-84
2023/03/26 14:11:16;;;;;;;2.13;1.87;;;14.90;82.60;;;;;;10446779;28;20194;-84
2023/03/26 14:16:24;;;;;;;1.63;1.50;;;14.80;84.20;;;;;;10456748;28;20267;-82
2023/03/26 14:21:49;;;;;;;3.10;1.90;;;14.90;82.50;;;;;;10436150;28;20249;-79
2023/03/26 14:27:05;;;;;;;2.77;2.47;;;14.80;87.70;;;;;;10452328;28;20303;-80
2023/03/26 14:32:17;;;;;;;1.40;1.30;;;14.60;92.30;;;;;;10455436;28;20225;-81
2023/03/26 14:37:28;;;;;;;1.83;1.60;;;14.50;89.50;;;;;;10434962;28;20591;-79
2023/03/26 14:42:40;;;;;;;1.80;1.70;;;14.20;90.30;;;;;;10441657;28;20246;-80
2023/03/26 14:47:48;;;;;;;1.57;1.47;;;13.80;95.00;;;;;;10455016;28;20301;-81
2023/03/26 14:52:52;;;;;;;2.53;2.13;;;13.20;97.60;;;;;;10428672;28;20195;-82
2023/03/26 14:58:12;;;;;;;2.13;2.00;;;12.70;99.10;;;;;;10511819;22;20282;-84
2023/03/26 15:04:07;;;;;;;2.33;2.23;;;12.20;99.90;;;;;;10501801;28;20217;-84
2023/03/26 15:09:39;;;;;;;2.47;2.27;;;12.00;99.90;;;;;;10451745;28;20213;-84
2023/03/26 15:15:26;;;;;;;2.50;2.30;;;11.90;99.90;;;;;;10440882;28;20686;-83
2023/03/26 15:21:12;;;;;;;2.80;2.70;;;11.90;99.90;;;;;;10429757;28;20292;-83
2023/03/26 15:26:51;;;;;;;6.37;5.73;;;11.90;99.90;;;;;;10466733;28;20214;-83
2023/03/26 15:32:30;;;;;;;2.00;1.90;;;11.90;99.90;;;;;;10451287;28;20235;-85
2023/03/26 15:38:07;;;;;;;2.30;1.43;;;12.00;99.90;;;;;;10473291;28;20592;-83
2023/03/26 15:43:14;;;;;;;2.80;1.73;;;12.00;99.90;;;;;;10460263;28;20232;-84
2023/03/26 15:48:54;;;;;;;1.60;1.50;;;11.90;99.90;;;;;;10483148;28;20233;-84
2023/03/26 15:54:02;;;;;;;1.20;1.20;;;11.80;99.90;;;;;;10466659;28;20541;-82
2023/03/26 15:59:18;;;;;;;1.70;1.60;;;11.70;99.90;;;;;;10480013;28;20209;-84
2023/03/26 16:04:29;;;;;;;2.90;1.70;;;11.60;99.90;;;;;;10482456;28;20227;-82
2023/03/26 16:09:51;;;;;;;1.57;1.47;;;11.50;99.90;;;;;;10472241;28;20209;-83
2023/03/26 16:15:19;;;;;;;1.80;1.70;;;11.50;99.90;;;;;;10436167;28;20218;-83
2023/03/26 16:20:30;;;;;;;1.30;1.20;;;11.50;99.40;;;;;;10466069;28;20224;-83
2023/03/26 16:25:34;;;;;;;2.03;1.60;;;11.50;99.30;;;;;;10453082;28;20225;-83
2023/03/26 16:30:39;;;;;;;1.40;1.30;;;11.40;99.60;;;;;;10469611;28;20229;-83
2023/03/26 16:36:04;;;;;;;1.27;1.27;;;11.30;98.00;;;;;;10475712;28;20241;-83
2023/03/26 16:41:16;;;;;;;1.40;1.30;;;11.10;98.60;;;;;;10462160;28;20669;-83
2023/03/26 16:46:36;;;;;;;1.53;1.50;;;11.00;99.80;;;;;;10441862;28;20275;-83
2023/03/26 16:52:10;;;;;;;1.57;1.47;;;11.00;98.80;;;;;;10469326;28;20669;-83
2023/03/26 16:57:25;;;;;;;1.40;1.30;;;10.90;99.90;;;;;;10479544;28;20206;-83
2023/03/26 17:02:35;;;;;;;1.67;1.57;;;10.90;99.00;;;;;;10459157;28;20310;-84
2023/03/26 17:07:41;;;;;;;1.60;1.50;;;10.90;98.90;;;;;;10470161;28;20620;-83
2023/03/26 17:12:51;;;;;;;1.47;1.37;;;10.80;98.90;;;;;;10465010;28;20196;-83
2023/03/26 17:18:04;;;;;;;1.90;1.80;;;10.80;99.20;;;;;;10483322;28;20278;-83
2023/03/26 17:23:21;;;;;;;1.60;1.50;;;10.80;98.70;;;;;;10464922;28;20225;-83
2023/03/26 17:28:34;;;;;;;1.50;1.40;;;10.70;99.90;;;;;;10468575;28;20227;-83
2023/03/26 17:33:38;;;;;;;2.33;1.93;;;10.80;99.60;;;;;;10461826;28;20260;-83
2023/03/26 17:39:34;;;;;;;2.50;2.40;;;10.80;99.60;;;;;;10459959;28;20205;-81
2023/03/26 17:44:45;;;;;;;1.90;1.70;;;10.80;99.30;;;;;;10415498;28;20256;-81
2023/03/26 17:49:52;;;;;;;1.93;1.83;;;10.70;99.80;;;;;;10461903;28;20225;-82
2023/03/26 17:54:56;;;;;;;5.17;1.90;;;10.70;99.20;;;;;;10465828;28;20235;-82
2023/03/26 18:00:00;;;;;;;1.80;1.70;;;10.70;99.10;;;;;;10464368;28;20201;-82
2023/03/26 18:05:08;;;;;;;1.90;1.80;;;10.60;99.80;;;;;;10461411;28;20571;-82
2023/03/26 18:10:31;;;;;;;1.80;1.70;;;10.60;99.80;;;;;;10463034;28;20199;-82
2023/03/26 18:15:52;;;;;;;1.80;1.70;;;10.50;99.90;;;;;;10464412;28;20253;-82
2023/03/26 18:21:01;;;;;;;3.13;1.60;;;10.50;99.90;;;;;;10476174;28;20195;-82
2023/03/26 18:26:12;;;;;;;1.80;1.70;;;10.50;99.80;;;;;;10461413;28;20228;-85
2023/03/26 18:31:18;;;;;;;1.43;1.33;;;10.50;99.90;;;;;;10458480;28;20197;-81
2023/03/26 18:36:25;;;;;;;1.70;1.60;;;10.50;98.70;;;;;;10459556;28;20219;-81
2023/03/26 18:41:31;;;;;;;1.53;1.43;;;10.50;99.70;;;;;;10464005;28;20240;-81
2023/03/26 18:46:33;;;;;;;1.90;1.73;;;10.40;98.80;;;;;;10466397;28;20568;-82
2023/03/26 18:51:37;;;;;;;1.53;1.40;;;10.40;99.60;;;;;;10450902;28;20215;-83
2023/03/26 18:56:42;;;;;;;1.80;1.70;;;10.40;98.60;;;;;;10467807;28;20254;-83
2023/03/26 19:01:44;;;;;;;1.70;1.60;;;10.40;98.90;;;;;;10460600;28;20213;-83
2023/03/26 19:06:52;;;;;;;1.60;1.50;;;10.30;99.10;;;;;;10475244;28;20220;-82
2023/03/26 19:11:56;;;;;;;1.83;1.77;;;10.30;98.50;;;;;;10450766;28;20235;-82
2023/03/26 19:17:01;;;;;;;3.40;2.03;;;10.10;99.50;;;;;;10464726;28;20523;-83
2023/03/26 19:22:07;;;;;;;2.33;2.00;;;10.10;99.00;;;;;;10468805;28;20231;-81
2023/03/26 19:27:11;;;;;;;1.50;1.50;;;10.10;99.40;;;;;;10472287;28;20228;-82
2023/03/26 19:32:19;;;;;;;3.43;1.80;;;10.10;99.60;;;;;;10488885;28;20284;-81
2023/03/26 19:37:25;;;;;;;2.23;1.87;;;10.20;99.90;;;;;;10483553;28;20724;-82
2023/03/26 19:42:30;;;;;;;1.90;1.80;;;10.20;99.50;;;;;;10486396;28;20228;-82
2023/03/26 19:47:40;;;;;;;1.47;1.37;;;10.30;99.00;;;;;;10465408;28;20250;-80
2023/03/26 19:52:45;;;;;;;1.80;1.70;;;10.30;99.20;;;;;;10447623;28;20203;-82
2023/03/26 19:57:48;;;;;;;1.40;1.40;;;10.30;97.40;;;;;;10475934;28;20228;-80
2023/03/26 20:02:50;;;;;;;1.73;1.40;;;10.10;97.90;;;;;;10476277;28;20224;-80
2023/03/26 20:07:59;;;;;;;2.27;1.87;;;10.00;97.80;;;;;;10481779;28;20228;-80
2023/03/26 20:13:01;;;;;;;1.87;1.77;;;9.90;99.60;;;;;;10478299;28;20647;-80
2023/03/26 20:18:03;;;;;;;1.67;1.57;;;9.80;99.90;;;;;;10477916;28;20230;-81
2023/03/26 20:23:13;;;;;;;1.93;1.83;;;9.90;99.90;;;;;;10465581;28;20319;-80
2023/03/26 20:28:17;;;;;;;1.30;1.30;;;9.90;99.80;;;;;;10459311;28;20227;-81
2023/03/26 20:33:25;;;;;;;1.30;1.20;;;9.90;98.90;;;;;;10452075;28;20252;-80
2023/03/26 20:38:28;;;;;;;1.80;1.70;;;9.90;99.70;;;;;;10455358;28;20221;-80
2023/03/26 20:43:31;;;;;;;1.40;1.30;;;9.90;98.90;;;;;;10458381;28;20751;-80
2023/03/26 20:48:34;;;;;;;1.40;1.30;;;9.90;98.50;;;;;;10462599;28;20681;-81
2023/03/26 20:53:37;;;;;;;1.20;1.20;;;9.90;98.80;;;;;;10487453;22;20225;-83
2023/03/26 20:58:40;;;;;;;1.73;1.20;;;9.80;97.90;;;;;;10358701;28;20233;-79
2023/03/26 21:03:45;;;;;;;1.67;1.50;;;9.70;98.50;;;;;;10360107;28;20316;-79
2023/03/26 21:08:49;;;;;;;1.50;1.40;;;9.60;98.10;;;;;;10351341;28;20202;-79
2023/03/26 21:13:59;;;;;;;1.30;1.30;;;9.60;98.30;;;;;;10354192;28;20192;-79
2023/03/26 21:19:03;;;;;;;1.27;1.27;;;9.60;98.80;;;;;;10355625;28;20611;-79
2023/03/26 21:24:17;;;;;;;1.60;1.50;;;9.50;98.80;;;;;;10337832;28;20284;-79
2023/03/26 21:29:20;;;;;;;1.50;1.40;;;9.60;97.80;;;;;;10313347;28;20698;-80
2023/03/26 21:34:23;;;;;;;4.00;2.57;;;9.60;98.00;;;;;;10300772;28;20313;-81
2023/03/26 21:39:28;;;;;;;1.70;1.60;;;9.50;99.10;;;;;;10323471;28;20239;-80
2023/03/26 21:44:30;;;;;;;5.80;1.63;;;9.50;99.90;;;;;;10325000;28;20301;-81
2023/03/26 21:49:34;;;;;;;1.90;1.80;;;9.30;99.90;;;;;;10334653;28;20199;-81
2023/03/26 21:54:38;;;;;;;1.60;1.50;;;9.20;99.90;;;;;;10353590;28;20603;-80
2023/03/26 21:59:48;;;;;;;1.70;1.60;;;9.20;99.90;;;;;;10324417;28;20704;-80
2023/03/26 22:04:57;;;;;;;2.60;1.50;;;9.10;99.90;;;;;;10300899;28;20224;-81
2023/03/26 22:10:00;;;;;;;1.60;1.50;;;9.10;99.90;;;;;;10321078;28;20191;-81
2023/03/26 22:15:03;;;;;;;1.30;1.20;;;9.10;99.90;;;;;;10306996;28;20228;-80
2023/03/26 22:20:11;;;;;;;2.40;2.20;;;9.00;99.90;;;;;;10303522;28;20201;-80
2023/03/26 22:25:15;;;;;;;2.50;2.30;;;9.00;99.90;;;;;;10309670;28;20220;-81
2023/03/26 22:30:19;;;;;;;2.50;2.30;;;9.00;99.90;;;;;;10335655;28;20282;-81
2023/03/26 22:35:21;;;;;;;3.17;2.50;;;9.00;99.90;;;;;;10326845;28;20733;-81
2023/03/26 22:40:25;;;;;;;2.90;2.70;;;9.00;99.90;;;;;;10304616;28;20205;-80
2023/03/26 22:45:28;;;;;;;3.40;3.10;;;9.00;99.90;;;;;;10307926;28;20208;-80
2023/03/26 22:50:31;;;;;;;2.70;2.50;;;9.00;99.90;;;;;;10329757;28;20196;-80
2023/03/26 22:55:35;;;;;;;2.80;2.67;;;9.00;99.90;;;;;;10346521;28;20227;-80
2023/03/26 23:00:38;;;;;;;2.87;2.77;;;9.00;99.90;;;;;;10318055;28;20209;-79
2023/03/26 23:05:41;;;;;;;2.60;2.50;;;8.90;99.90;;;;;;10287682;28;20225;-79
2023/03/26 23:10:44;;;;;;;3.60;3.30;;;8.90;99.90;;;;;;10316258;28;20197;-79
2023/03/26 23:15:51;;;;;;;3.03;2.63;;;8.90;99.90;;;;;;10309081;28;20245;-81
2023/03/26 23:20:55;;;;;;;2.57;2.47;;;8.90;99.90;;;;;;10317176;28;20695;-80
2023/03/26 23:26:00;;;;;;;2.60;2.50;;;8.90;99.90;;;;;;10306782;28;20223;-81
2023/03/26 23:31:04;;;;;;;2.10;2.00;;;9.00;99.90;;;;;;10316318;28;20204;-80
2023/03/26 23:36:08;;;;;;;3.30;3.10;;;9.10;99.90;;;;;;10307072;28;20248;-80
2023/03/26 23:41:13;;;;;;;3.17;3.07;;;9.10;99.90;;;;;;10302376;28;20248;-80
2023/03/26 23:46:16;;;;;;;3.00;2.90;;;9.10;99.90;;;;;;10311304;28;20216;-81
2023/03/26 23:51:19;;;;;;;3.10;2.90;;;9.20;99.90;;;;;;10296016;28;20658;-79
2023/03/26 23:56:22;;;;;;;3.20;3.10;;;9.20;99.90;;;;;;10329609;28;20231;-80
